sensor_id;sensor_type;location;lat;lon;timestamp;P1;durP1;ratioP1;P2;durP2;ratioP2
3341;SDS011;1684;50.748;6.154;2023-05-10T00:00:22;13.70;;;8.57;;
3341;SDS011;1684;50.748;6.154;2023-05-10T00:02:51;16.00;;;9.90;;
3341;SDS011;1684;50.748;6.154;2023-05-10T00:05:19;22.47;;;13.90;;
3341;SDS011;1684;50.748;6.154;2023-05-10T00:07:47;23.37;;;16.27;;
3341;SDS011;1684;50.748;6.154;2023-05-10T00:10:16;21.33;;;13.70;;
3341;SDS011;1684;50.748;6.154;2023-05-10T00:12:44;33.60;;;17.60;;
3341;SDS011;1684;50.748;6.154;2023-05-10T00:15:12;23.63;;;13.83;;
3341;SDS011;1684;50.748;6.154;2023-05-10T00:17:42;31.80;;;19.73;;
3341;SDS011;1684;50.748;6.154;2023-05-10T00:20:11;27.90;;;18.30;;
3341;SDS011;1684;50.748;6.154;2023-05-10T00:22:39;26.20;;;16.73;;
3341;SDS011;1684;50.748;6.154;2023-05-10T00:25:08;25.50;;;15.70;;
3341;SDS011;1684;50.748;6.154;2023-05-10T00:27:36;21.17;;;13.20;;
3341;SDS011;1684;50.748;6.154;2023-05-10T00:30:05;30.40;;;18.57;;
3341;SDS011;1684;50.748;6.154;2023-05-10T00:32:33;29.83;;;19.77;;
3341;SDS011;1684;50.748;6.154;2023-05-10T00:35:03;22.13;;;14.30;;
3341;SDS011;1684;50.748;6.154;2023-05-10T00:37:32;29.13;;;19.13;;
3341;SDS011;1684;50.748;6.154;2023-05-10T00:40:00;20.73;;;12.40;;
3341;SDS011;1684;50.748;6.154;2023-05-10T00:42:28;33.53;;;17.80;;
3341;SDS011;1684;50.748;6.154;2023-05-10T00:44:56;28.80;;;17.53;;
3341;SDS011;1684;50.748;6.154;2023-05-10T00:47:24;26.53;;;17.00;;
3341;SDS011;1684;50.748;6.154;2023-05-10T00:49:53;27.87;;;17.33;;
3341;SDS011;1684;50.748;6.154;2023-05-10T00:52:23;26.47;;;15.80;;
3341;SDS011;1684;50.748;6.154;2023-05-10T00:54:52;21.17;;;13.83;;
3341;SDS011;1684;50.748;6.154;2023-05-10T00:57:20;23.83;;;14.13;;
3341;SDS011;1684;50.748;6.154;2023-05-10T00:59:48;22.53;;;12.80;;
3341;SDS011;1684;50.748;6.154;2023-05-10T01:02:17;15.87;;;9.10;;
3341;SDS011;1684;50.748;6.154;2023-05-10T01:04:45;19.73;;;11.90;;
3341;SDS011;1684;50.748;6.154;2023-05-10T01:07:14;16.63;;;11.27;;
3341;SDS011;1684;50.748;6.154;2023-05-10T01:09:44;17.53;;;10.93;;
3341;SDS011;1684;50.748;6.154;2023-05-10T01:12:12;16.60;;;10.37;;
3341;SDS011;1684;50.748;6.154;2023-05-10T01:14:41;17.63;;;10.03;;
3341;SDS011;1684;50.748;6.154;2023-05-10T01:17:09;18.10;;;10.60;;
3341;SDS011;1684;50.748;6.154;2023-05-10T01:19:38;14.70;;;9.57;;
3341;SDS011;1684;50.748;6.154;2023-05-10T01:22:11;15.30;;;10.53;;
3341;SDS011;1684;50.748;6.154;2023-05-10T01:24:50;15.20;;;10.00;;
3341;SDS011;1684;50.748;6.154;2023-05-10T01:27:25;16.23;;;9.17;;
3341;SDS011;1684;50.748;6.154;2023-05-10T01:32:44;15.07;;;8.80;;
3341;SDS011;1684;50.748;6.154;2023-05-10T01:35:18;13.40;;;8.40;;
3341;SDS011;1684;50.748;6.154;2023-05-10T01:37:50;15.43;;;9.57;;
3341;SDS011;1684;50.748;6.154;2023-05-10T01:40:22;14.10;;;8.93;;
3341;SDS011;1684;50.748;6.154;2023-05-10T01:42:51;16.07;;;9.90;;
3341;SDS011;1684;50.748;6.154;2023-05-10T01:45:24;16.40;;;9.60;;
3341;SDS011;1684;50.748;6.154;2023-05-10T01:48:01;14.67;;;10.30;;
3341;SDS011;1684;50.748;6.154;2023-05-10T01:50:30;14.97;;;9.40;;
3341;SDS011;1684;50.748;6.154;2023-05-10T01:52:59;14.97;;;9.90;;
3341;SDS011;1684;50.748;6.154;2023-05-10T01:55:30;15.03;;;9.43;;
3341;SDS011;1684;50.748;6.154;2023-05-10T01:58:02;18.10;;;10.00;;
3341;SDS011;1684;50.748;6.154;2023-05-10T02:00:30;13.83;;;9.97;;
3341;SDS011;1684;50.748;6.154;2023-05-10T02:03:01;13.93;;;9.27;;
3341;SDS011;1684;50.748;6.154;2023-05-10T02:05:32;13.90;;;8.93;;
3341;SDS011;1684;50.748;6.154;2023-05-10T02:08:01;11.30;;;8.47;;
3341;SDS011;1684;50.748;6.154;2023-05-10T02:10:30;11.47;;;6.93;;
3341;SDS011;1684;50.748;6.154;2023-05-10T02:13:00;12.57;;;8.83;;
3341;SDS011;1684;50.748;6.154;2023-05-10T02:15:29;12.20;;;7.60;;
3341;SDS011;1684;50.748;6.154;2023-05-10T02:17:59;10.40;;;8.43;;
3341;SDS011;1684;50.748;6.154;2023-05-10T02:20:29;14.97;;;8.50;;
3341;SDS011;1684;50.748;6.154;2023-05-10T02:22:58;13.70;;;9.70;;
3341;SDS011;1684;50.748;6.154;2023-05-10T02:25:27;14.13;;;8.50;;
3341;SDS011;1684;50.748;6.154;2023-05-10T02:27:56;16.63;;;9.77;;
3341;SDS011;1684;50.748;6.154;2023-05-10T02:30:25;16.60;;;10.00;;
3341;SDS011;1684;50.748;6.154;2023-05-10T02:32:54;16.80;;;11.10;;
3341;SDS011;1684;50.748;6.154;2023-05-10T02:35:22;15.00;;;10.70;;
3341;SDS011;1684;50.748;6.154;2023-05-10T02:37:52;17.10;;;12.33;;
3341;SDS011;1684;50.748;6.154;2023-05-10T02:40:21;18.37;;;12.93;;
3341;SDS011;1684;50.748;6.154;2023-05-10T02:42:54;18.00;;;13.50;;
3341;SDS011;1684;50.748;6.154;2023-05-10T02:45:23;20.30;;;11.83;;
3341;SDS011;1684;50.748;6.154;2023-05-10T02:47:52;27.07;;;17.03;;
3341;SDS011;1684;50.748;6.154;2023-05-10T02:50:20;26.27;;;15.67;;
3341;SDS011;1684;50.748;6.154;2023-05-10T02:52:50;21.07;;;14.73;;
3341;SDS011;1684;50.748;6.154;2023-05-10T02:55:21;18.63;;;10.10;;
3341;SDS011;1684;50.748;6.154;2023-05-10T02:57:51;24.93;;;15.13;;
3341;SDS011;1684;50.748;6.154;2023-05-10T03:00:20;21.50;;;14.07;;
3341;SDS011;1684;50.748;6.154;2023-05-10T03:02:48;32.30;;;16.97;;
3341;SDS011;1684;50.748;6.154;2023-05-10T03:05:17;28.47;;;16.90;;
3341;SDS011;1684;50.748;6.154;2023-05-10T03:07:45;30.53;;;17.87;;
3341;SDS011;1684;50.748;6.154;2023-05-10T03:10:14;31.83;;;19.10;;
3341;SDS011;1684;50.748;6.154;2023-05-10T03:12:50;30.10;;;18.13;;
3341;SDS011;1684;50.748;6.154;2023-05-10T03:15:22;27.90;;;15.80;;
3341;SDS011;1684;50.748;6.154;2023-05-10T03:17:54;26.30;;;15.67;;
3341;SDS011;1684;50.748;6.154;2023-05-10T03:20:24;31.70;;;16.80;;
3341;SDS011;1684;50.748;6.154;2023-05-10T03:22:55;30.37;;;16.43;;
3341;SDS011;1684;50.748;6.154;2023-05-10T03:25:23;27.57;;;16.87;;
3341;SDS011;1684;50.748;6.154;2023-05-10T03:27:53;23.80;;;15.87;;
3341;SDS011;1684;50.748;6.154;2023-05-10T03:30:22;29.33;;;16.87;;
3341;SDS011;1684;50.748;6.154;2023-05-10T03:32:50;28.40;;;18.17;;
3341;SDS011;1684;50.748;6.154;2023-05-10T03:35:19;27.77;;;15.90;;
3341;SDS011;1684;50.748;6.154;2023-05-10T03:37:47;32.43;;;18.03;;
3341;SDS011;1684;50.748;6.154;2023-05-10T03:40:15;29.60;;;17.33;;
3341;SDS011;1684;50.748;6.154;2023-05-10T03:42:44;35.40;;;17.70;;
3341;SDS011;1684;50.748;6.154;2023-05-10T03:45:13;26.10;;;15.93;;
3341;SDS011;1684;50.748;6.154;2023-05-10T03:47:42;26.90;;;16.63;;
3341;SDS011;1684;50.748;6.154;2023-05-10T03:50:10;24.47;;;16.07;;
3341;SDS011;1684;50.748;6.154;2023-05-10T03:52:38;26.47;;;15.77;;
3341;SDS011;1684;50.748;6.154;2023-05-10T03:55:07;31.40;;;16.33;;
3341;SDS011;1684;50.748;6.154;2023-05-10T03:57:35;29.97;;;16.60;;
3341;SDS011;1684;50.748;6.154;2023-05-10T04:00:04;22.90;;;15.60;;
3341;SDS011;1684;50.748;6.154;2023-05-10T04:02:33;20.40;;;11.27;;
3341;SDS011;1684;50.748;6.154;2023-05-10T04:05:02;24.97;;;14.27;;
3341;SDS011;1684;50.748;6.154;2023-05-10T04:07:31;23.90;;;12.50;;
3341;SDS011;1684;50.748;6.154;2023-05-10T04:09:59;24.03;;;12.60;;
3341;SDS011;1684;50.748;6.154;2023-05-10T04:12:27;21.63;;;14.10;;
3341;SDS011;1684;50.748;6.154;2023-05-10T04:14:55;20.97;;;12.53;;
3341;SDS011;1684;50.748;6.154;2023-05-10T04:17:24;19.27;;;11.80;;
3341;SDS011;1684;50.748;6.154;2023-05-10T04:19:53;20.27;;;11.53;;
3341;SDS011;1684;50.748;6.154;2023-05-10T04:22:22;21.60;;;12.37;;
3341;SDS011;1684;50.748;6.154;2023-05-10T04:24:50;18.17;;;10.80;;
3341;SDS011;1684;50.748;6.154;2023-05-10T04:27:18;16.73;;;9.93;;
3341;SDS011;1684;50.748;6.154;2023-05-10T04:29:46;18.23;;;10.10;;
3341;SDS011;1684;50.748;6.154;2023-05-10T04:32:15;18.87;;;9.73;;
3341;SDS011;1684;50.748;6.154;2023-05-10T04:34:43;16.73;;;9.77;;
3341;SDS011;1684;50.748;6.154;2023-05-10T04:37:13;19.80;;;10.43;;
3341;SDS011;1684;50.748;6.154;2023-05-10T04:39:41;19.07;;;9.87;;
3341;SDS011;1684;50.748;6.154;2023-05-10T04:42:09;18.27;;;8.90;;
3341;SDS011;1684;50.748;6.154;2023-05-10T04:44:38;15.20;;;9.20;;
3341;SDS011;1684;50.748;6.154;2023-05-10T04:47:06;22.57;;;10.30;;
3341;SDS011;1684;50.748;6.154;2023-05-10T04:49:37;21.07;;;9.90;;
3341;SDS011;1684;50.748;6.154;2023-05-10T04:52:06;19.40;;;10.60;;
3341;SDS011;1684;50.748;6.154;2023-05-10T04:54:35;15.90;;;8.90;;
3341;SDS011;1684;50.748;6.154;2023-05-10T04:57:03;18.63;;;10.20;;
3341;SDS011;1684;50.748;6.154;2023-05-10T04:59:32;22.53;;;11.90;;
3341;SDS011;1684;50.748;6.154;2023-05-10T05:02:00;15.00;;;9.90;;
3341;SDS011;1684;50.748;6.154;2023-05-10T05:04:29;21.70;;;10.13;;
3341;SDS011;1684;50.748;6.154;2023-05-10T05:06:58;19.97;;;10.77;;
3341;SDS011;1684;50.748;6.154;2023-05-10T05:09:26;21.23;;;12.27;;
3341;SDS011;1684;50.748;6.154;2023-05-10T05:11:56;19.60;;;10.37;;
3341;SDS011;1684;50.748;6.154;2023-05-10T05:14:24;23.77;;;10.23;;
3341;SDS011;1684;50.748;6.154;2023-05-10T05:16:52;17.97;;;9.83;;
3341;SDS011;1684;50.748;6.154;2023-05-10T05:19:20;17.87;;;9.10;;
3341;SDS011;1684;50.748;6.154;2023-05-10T05:21:49;23.30;;;10.40;;
3341;SDS011;1684;50.748;6.154;2023-05-10T05:24:17;18.00;;;9.70;;
3341;SDS011;1684;50.748;6.154;2023-05-10T05:26:48;19.77;;;10.30;;
3341;SDS011;1684;50.748;6.154;2023-05-10T05:29:18;18.73;;;11.20;;
3341;SDS011;1684;50.748;6.154;2023-05-10T05:31:46;19.80;;;9.33;;
3341;SDS011;1684;50.748;6.154;2023-05-10T05:34:14;20.47;;;8.10;;
3341;SDS011;1684;50.748;6.154;2023-05-10T05:36:43;14.60;;;8.47;;
3341;SDS011;1684;50.748;6.154;2023-05-10T05:39:11;17.63;;;8.37;;
3341;SDS011;1684;50.748;6.154;2023-05-10T05:41:39;17.87;;;8.07;;
3341;SDS011;1684;50.748;6.154;2023-05-10T05:44:08;12.60;;;7.30;;
3341;SDS011;1684;50.748;6.154;2023-05-10T05:46:37;12.53;;;6.43;;
3341;SDS011;1684;50.748;6.154;2023-05-10T05:49:06;12.17;;;7.30;;
3341;SDS011;1684;50.748;6.154;2023-05-10T05:51:34;14.17;;;6.50;;
3341;SDS011;1684;50.748;6.154;2023-05-10T05:54:02;13.10;;;6.40;;
3341;SDS011;1684;50.748;6.154;2023-05-10T05:56:31;10.50;;;6.97;;
3341;SDS011;1684;50.748;6.154;2023-05-10T05:58:59;12.63;;;6.10;;
3341;SDS011;1684;50.748;6.154;2023-05-10T06:01:27;12.40;;;6.07;;
3341;SDS011;1684;50.748;6.154;2023-05-10T06:03:57;11.10;;;5.80;;
3341;SDS011;1684;50.748;6.154;2023-05-10T06:06:25;8.63;;;5.40;;
3341;SDS011;1684;50.748;6.154;2023-05-10T06:08:54;12.60;;;6.07;;
3341;SDS011;1684;50.748;6.154;2023-05-10T06:11:22;8.77;;;5.23;;
3341;SDS011;1684;50.748;6.154;2023-05-10T06:13:51;11.40;;;4.90;;
3341;SDS011;1684;50.748;6.154;2023-05-10T06:16:19;9.30;;;4.10;;
3341;SDS011;1684;50.748;6.154;2023-05-10T06:18:47;7.57;;;4.17;;
3341;SDS011;1684;50.748;6.154;2023-05-10T06:21:18;6.23;;;3.80;;
3341;SDS011;1684;50.748;6.154;2023-05-10T06:23:46;5.53;;;3.50;;
3341;SDS011;1684;50.748;6.154;2023-05-10T06:26:14;8.50;;;4.07;;
3341;SDS011;1684;50.748;6.154;2023-05-10T06:28:42;7.50;;;3.53;;
3341;SDS011;1684;50.748;6.154;2023-05-10T06:31:10;7.30;;;4.30;;
3341;SDS011;1684;50.748;6.154;2023-05-10T06:33:41;4.90;;;2.80;;
3341;SDS011;1684;50.748;6.154;2023-05-10T06:36:09;5.00;;;2.70;;
3341;SDS011;1684;50.748;6.154;2023-05-10T06:38:39;5.30;;;2.60;;
3341;SDS011;1684;50.748;6.154;2023-05-10T06:41:07;4.50;;;2.13;;
3341;SDS011;1684;50.748;6.154;2023-05-10T06:43:35;5.07;;;1.97;;
3341;SDS011;1684;50.748;6.154;2023-05-10T06:46:06;3.50;;;1.50;;
3341;SDS011;1684;50.748;6.154;2023-05-10T06:48:34;4.30;;;1.37;;
3341;SDS011;1684;50.748;6.154;2023-05-10T06:51:03;5.47;;;1.70;;
3341;SDS011;1684;50.748;6.154;2023-05-10T06:53:31;2.80;;;1.00;;
3341;SDS011;1684;50.748;6.154;2023-05-10T06:56:01;4.43;;;2.40;;
3341;SDS011;1684;50.748;6.154;2023-05-10T06:58:29;2.77;;;1.10;;
3341;SDS011;1684;50.748;6.154;2023-05-10T07:01:01;3.63;;;1.70;;
3341;SDS011;1684;50.748;6.154;2023-05-10T07:03:30;4.40;;;2.00;;
3341;SDS011;1684;50.748;6.154;2023-05-10T07:06:02;4.40;;;1.07;;
3341;SDS011;1684;50.748;6.154;2023-05-10T07:08:30;2.97;;;1.67;;
3341;SDS011;1684;50.748;6.154;2023-05-10T07:11:00;2.70;;;1.03;;
3341;SDS011;1684;50.748;6.154;2023-05-10T07:13:29;3.83;;;1.47;;
3341;SDS011;1684;50.748;6.154;2023-05-10T07:15:58;2.80;;;0.90;;
3341;SDS011;1684;50.748;6.154;2023-05-10T07:18:26;3.20;;;0.80;;
3341;SDS011;1684;50.748;6.154;2023-05-10T07:20:55;2.97;;;1.20;;
3341;SDS011;1684;50.748;6.154;2023-05-10T07:23:24;3.43;;;0.93;;
3341;SDS011;1684;50.748;6.154;2023-05-10T07:25:53;6.63;;;1.83;;
3341;SDS011;1684;50.748;6.154;2023-05-10T07:28:22;6.90;;;3.10;;
3341;SDS011;1684;50.748;6.154;2023-05-10T07:30:51;2.47;;;1.10;;
3341;SDS011;1684;50.748;6.154;2023-05-10T07:33:19;2.80;;;1.10;;
3341;SDS011;1684;50.748;6.154;2023-05-10T07:35:48;3.60;;;0.80;;
3341;SDS011;1684;50.748;6.154;2023-05-10T07:38:16;3.30;;;1.40;;
3341;SDS011;1684;50.748;6.154;2023-05-10T07:40:46;3.33;;;1.43;;
3341;SDS011;1684;50.748;6.154;2023-05-10T07:43:14;3.70;;;1.37;;
3341;SDS011;1684;50.748;6.154;2023-05-10T07:45:44;4.77;;;2.93;;
3341;SDS011;1684;50.748;6.154;2023-05-10T07:48:12;4.17;;;2.20;;
3341;SDS011;1684;50.748;6.154;2023-05-10T07:50:41;7.30;;;2.07;;
3341;SDS011;1684;50.748;6.154;2023-05-10T07:53:09;4.10;;;2.03;;
3341;SDS011;1684;50.748;6.154;2023-05-10T07:55:37;4.20;;;2.00;;
3341;SDS011;1684;50.748;6.154;2023-05-10T07:58:05;6.90;;;2.50;;
3341;SDS011;1684;50.748;6.154;2023-05-10T08:00:34;5.53;;;2.90;;
3341;SDS011;1684;50.748;6.154;2023-05-10T08:03:06;5.93;;;3.10;;
3341;SDS011;1684;50.748;6.154;2023-05-10T08:05:35;5.43;;;3.10;;
3341;SDS011;1684;50.748;6.154;2023-05-10T08:08:03;4.70;;;2.87;;
3341;SDS011;1684;50.748;6.154;2023-05-10T08:10:32;5.20;;;2.90;;
3341;SDS011;1684;50.748;6.154;2023-05-10T08:13:01;6.20;;;3.40;;
3341;SDS011;1684;50.748;6.154;2023-05-10T08:15:29;5.07;;;2.73;;
3341;SDS011;1684;50.748;6.154;2023-05-10T08:17:57;5.20;;;2.60;;
3341;SDS011;1684;50.748;6.154;2023-05-10T08:20:27;4.80;;;2.17;;
3341;SDS011;1684;50.748;6.154;2023-05-10T08:22:56;3.70;;;1.80;;
3341;SDS011;1684;50.748;6.154;2023-05-10T08:25:24;4.17;;;1.97;;
3341;SDS011;1684;50.748;6.154;2023-05-10T08:27:52;4.47;;;2.00;;
3341;SDS011;1684;50.748;6.154;2023-05-10T08:30:20;7.43;;;1.63;;
3341;SDS011;1684;50.748;6.154;2023-05-10T08:32:49;3.83;;;2.50;;
3341;SDS011;1684;50.748;6.154;2023-05-10T08:35:17;3.50;;;1.83;;
3341;SDS011;1684;50.748;6.154;2023-05-10T08:37:47;3.80;;;1.93;;
3341;SDS011;1684;50.748;6.154;2023-05-10T08:40:15;3.70;;;1.90;;
3341;SDS011;1684;50.748;6.154;2023-05-10T08:42:47;5.13;;;2.03;;
3341;SDS011;1684;50.748;6.154;2023-05-10T08:45:17;3.20;;;1.80;;
3341;SDS011;1684;50.748;6.154;2023-05-10T08:47:46;3.07;;;1.20;;
3341;SDS011;1684;50.748;6.154;2023-05-10T08:50:15;4.70;;;1.50;;
3341;SDS011;1684;50.748;6.154;2023-05-10T08:52:44;4.23;;;1.97;;
3341;SDS011;1684;50.748;6.154;2023-05-10T08:55:15;3.60;;;1.60;;
3341;SDS011;1684;50.748;6.154;2023-05-10T08:57:44;3.17;;;1.60;;
3341;SDS011;1684;50.748;6.154;2023-05-10T09:00:13;3.73;;;1.97;;
3341;SDS011;1684;50.748;6.154;2023-05-10T09:02:41;3.23;;;1.40;;
3341;SDS011;1684;50.748;6.154;2023-05-10T09:05:12;3.30;;;1.73;;
3341;SDS011;1684;50.748;6.154;2023-05-10T09:07:42;3.77;;;1.97;;
3341;SDS011;1684;50.748;6.154;2023-05-10T09:10:10;3.40;;;1.83;;
3341;SDS011;1684;50.748;6.154;2023-05-10T09:12:40;3.33;;;1.80;;
3341;SDS011;1684;50.748;6.154;2023-05-10T09:15:10;3.80;;;2.10;;
3341;SDS011;1684;50.748;6.154;2023-05-10T09:17:41;4.10;;;1.90;;
3341;SDS011;1684;50.748;6.154;2023-05-10T09:20:10;4.17;;;2.17;;
3341;SDS011;1684;50.748;6.154;2023-05-10T09:22:38;3.70;;;2.10;;
3341;SDS011;1684;50.748;6.154;2023-05-10T09:25:07;4.10;;;2.30;;
3341;SDS011;1684;50.748;6.154;2023-05-10T09:27:37;4.90;;;2.60;;
3341;SDS011;1684;50.748;6.154;2023-05-10T09:30:08;5.00;;;2.70;;
3341;SDS011;1684;50.748;6.154;2023-05-10T09:32:37;3.90;;;2.43;;
3341;SDS011;1684;50.748;6.154;2023-05-10T09:35:06;4.10;;;2.40;;
3341;SDS011;1684;50.748;6.154;2023-05-10T09:37:34;4.10;;;2.53;;
3341;SDS011;1684;50.748;6.154;2023-05-10T09:40:06;4.90;;;3.70;;
3341;SDS011;1684;50.748;6.154;2023-05-10T09:42:34;5.37;;;3.70;;
3341;SDS011;1684;50.748;6.154;2023-05-10T09:45:03;4.90;;;2.53;;
3341;SDS011;1684;50.748;6.154;2023-05-10T09:47:33;5.57;;;3.80;;
3341;SDS011;1684;50.748;6.154;2023-05-10T09:50:02;5.73;;;3.97;;
3341;SDS011;1684;50.748;6.154;2023-05-10T09:52:30;5.70;;;3.63;;
3341;SDS011;1684;50.748;6.154;2023-05-10T09:54:59;6.40;;;4.73;;
3341;SDS011;1684;50.748;6.154;2023-05-10T09:57:27;5.10;;;3.70;;
3341;SDS011;1684;50.748;6.154;2023-05-10T09:59:55;5.77;;;3.83;;
3341;SDS011;1684;50.748;6.154;2023-05-10T10:02:28;6.00;;;3.80;;
3341;SDS011;1684;50.748;6.154;2023-05-10T10:04:57;5.43;;;4.17;;
3341;SDS011;1684;50.748;6.154;2023-05-10T10:07:26;6.07;;;3.90;;
3341;SDS011;1684;50.748;6.154;2023-05-10T10:09:55;5.50;;;4.40;;
3341;SDS011;1684;50.748;6.154;2023-05-10T10:12:23;4.93;;;3.73;;
3341;SDS011;1684;50.748;6.154;2023-05-10T10:14:52;6.00;;;4.70;;
3341;SDS011;1684;50.748;6.154;2023-05-10T10:17:21;7.30;;;4.37;;
3341;SDS011;1684;50.748;6.154;2023-05-10T10:19:49;5.87;;;4.83;;
3341;SDS011;1684;50.748;6.154;2023-05-10T10:22:19;6.87;;;4.37;;
3341;SDS011;1684;50.748;6.154;2023-05-10T10:24:47;7.37;;;4.80;;
3341;SDS011;1684;50.748;6.154;2023-05-10T10:27:19;5.90;;;4.83;;
3341;SDS011;1684;50.748;6.154;2023-05-10T10:29:50;6.97;;;5.30;;
3341;SDS011;1684;50.748;6.154;2023-05-10T10:32:22;7.00;;;4.97;;
3341;SDS011;1684;50.748;6.154;2023-05-10T10:34:53;6.10;;;4.47;;
3341;SDS011;1684;50.748;6.154;2023-05-10T10:37:23;6.43;;;4.30;;
3341;SDS011;1684;50.748;6.154;2023-05-10T10:39:52;5.13;;;4.17;;
3341;SDS011;1684;50.748;6.154;2023-05-10T10:45:13;6.53;;;4.20;;
3341;SDS011;1684;50.748;6.154;2023-05-10T10:47:41;7.83;;;5.00;;
3341;SDS011;1684;50.748;6.154;2023-05-10T10:50:10;6.47;;;4.67;;
3341;SDS011;1684;50.748;6.154;2023-05-10T10:52:41;9.20;;;4.83;;
3341;SDS011;1684;50.748;6.154;2023-05-10T10:55:10;6.10;;;4.40;;
3341;SDS011;1684;50.748;6.154;2023-05-10T10:57:48;7.60;;;4.40;;
3341;SDS011;1684;50.748;6.154;2023-05-10T11:00:24;6.10;;;4.80;;
3341;SDS011;1684;50.748;6.154;2023-05-10T11:02:54;6.00;;;4.60;;
3341;SDS011;1684;50.748;6.154;2023-05-10T11:05:24;8.40;;;4.63;;
3341;SDS011;1684;50.748;6.154;2023-05-10T11:07:54;4.40;;;3.20;;
3341;SDS011;1684;50.748;6.154;2023-05-10T11:10:24;8.90;;;5.57;;
3341;SDS011;1684;50.748;6.154;2023-05-10T11:12:52;9.30;;;4.23;;
3341;SDS011;1684;50.748;6.154;2023-05-10T11:15:28;6.47;;;3.80;;
3341;SDS011;1684;50.748;6.154;2023-05-10T11:17:57;5.30;;;3.57;;
3341;SDS011;1684;50.748;6.154;2023-05-10T11:20:27;6.07;;;3.40;;
3341;SDS011;1684;50.748;6.154;2023-05-10T11:23:11;5.67;;;4.17;;
3341;SDS011;1684;50.748;6.154;2023-05-10T11:25:42;6.17;;;4.43;;
3341;SDS011;1684;50.748;6.154;2023-05-10T11:28:11;6.63;;;4.50;;
3341;SDS011;1684;50.748;6.154;2023-05-10T11:30:40;5.73;;;4.47;;
3341;SDS011;1684;50.748;6.154;2023-05-10T11:33:08;5.70;;;4.30;;
3341;SDS011;1684;50.748;6.154;2023-05-10T11:35:37;6.30;;;4.40;;
3341;SDS011;1684;50.748;6.154;2023-05-10T11:38:08;9.30;;;4.77;;
3341;SDS011;1684;50.748;6.154;2023-05-10T11:40:38;6.53;;;5.00;;
3341;SDS011;1684;50.748;6.154;2023-05-10T11:43:08;7.20;;;5.73;;
3341;SDS011;1684;50.748;6.154;2023-05-10T11:45:37;7.43;;;6.10;;
3341;SDS011;1684;50.748;6.154;2023-05-10T11:48:05;6.60;;;5.17;;
3341;SDS011;1684;50.748;6.154;2023-05-10T11:50:34;6.53;;;5.23;;
3341;SDS011;1684;50.748;6.154;2023-05-10T11:53:02;7.90;;;5.20;;
3341;SDS011;1684;50.748;6.154;2023-05-10T11:55:32;9.70;;;5.90;;
3341;SDS011;1684;50.748;6.154;2023-05-10T11:58:02;6.20;;;4.87;;
3341;SDS011;1684;50.748;6.154;2023-05-10T12:00:31;6.77;;;5.30;;
3341;SDS011;1684;50.748;6.154;2023-05-10T12:03:00;6.80;;;4.67;;
3341;SDS011;1684;50.748;6.154;2023-05-10T12:05:31;6.60;;;4.93;;
3341;SDS011;1684;50.748;6.154;2023-05-10T12:08:12;7.10;;;4.13;;
3341;SDS011;1684;50.748;6.154;2023-05-10T12:10:41;5.70;;;4.40;;
3341;SDS011;1684;50.748;6.154;2023-05-10T12:13:14;5.97;;;4.10;;
3341;SDS011;1684;50.748;6.154;2023-05-10T12:15:42;6.03;;;4.90;;
3341;SDS011;1684;50.748;6.154;2023-05-10T12:18:11;6.53;;;4.47;;
3341;SDS011;1684;50.748;6.154;2023-05-10T12:20:40;6.20;;;5.20;;
3341;SDS011;1684;50.748;6.154;2023-05-10T12:23:09;6.97;;;4.57;;
3341;SDS011;1684;50.748;6.154;2023-05-10T12:25:38;6.07;;;4.50;;
3341;SDS011;1684;50.748;6.154;2023-05-10T12:28:08;8.30;;;4.80;;
3341;SDS011;1684;50.748;6.154;2023-05-10T12:30:38;7.53;;;4.63;;
3341;SDS011;1684;50.748;6.154;2023-05-10T12:33:09;5.70;;;3.80;;
3341;SDS011;1684;50.748;6.154;2023-05-10T12:35:45;6.70;;;4.60;;
3341;SDS011;1684;50.748;6.154;2023-05-10T12:38:24;7.60;;;5.27;;
3341;SDS011;1684;50.748;6.154;2023-05-10T12:40:52;7.63;;;5.03;;
3341;SDS011;1684;50.748;6.154;2023-05-10T12:43:20;6.23;;;4.80;;
3341;SDS011;1684;50.748;6.154;2023-05-10T12:45:50;6.63;;;4.77;;
3341;SDS011;1684;50.748;6.154;2023-05-10T12:48:18;7.77;;;4.27;;
3341;SDS011;1684;50.748;6.154;2023-05-10T12:50:47;7.43;;;4.50;;
3341;SDS011;1684;50.748;6.154;2023-05-10T12:53:15;7.10;;;4.83;;
3341;SDS011;1684;50.748;6.154;2023-05-10T12:55:44;7.30;;;4.70;;
3341;SDS011;1684;50.748;6.154;2023-05-10T12:58:12;7.50;;;4.60;;
3341;SDS011;1684;50.748;6.154;2023-05-10T13:01:01;6.90;;;4.40;;
3341;SDS011;1684;50.748;6.154;2023-05-10T13:03:31;6.60;;;4.60;;
3341;SDS011;1684;50.748;6.154;2023-05-10T13:05:59;6.80;;;5.33;;
3341;SDS011;1684;50.748;6.154;2023-05-10T13:08:27;6.77;;;4.33;;
3341;SDS011;1684;50.748;6.154;2023-05-10T13:10:59;7.40;;;4.30;;
3341;SDS011;1684;50.748;6.154;2023-05-10T13:13:28;6.70;;;4.37;;
3341;SDS011;1684;50.748;6.154;2023-05-10T13:15:56;7.60;;;4.70;;
3341;SDS011;1684;50.748;6.154;2023-05-10T13:18:26;8.60;;;4.67;;
3341;SDS011;1684;50.748;6.154;2023-05-10T13:20:54;6.10;;;3.57;;
3341;SDS011;1684;50.748;6.154;2023-05-10T13:23:23;6.90;;;3.50;;
3341;SDS011;1684;50.748;6.154;2023-05-10T13:25:51;7.47;;;4.70;;
3341;SDS011;1684;50.748;6.154;2023-05-10T13:28:19;7.97;;;4.03;;
3341;SDS011;1684;50.748;6.154;2023-05-10T13:30:47;6.37;;;4.33;;
3341;SDS011;1684;50.748;6.154;2023-05-10T13:33:16;7.30;;;4.90;;
3341;SDS011;1684;50.748;6.154;2023-05-10T13:35:45;7.10;;;4.00;;
3341;SDS011;1684;50.748;6.154;2023-05-10T13:38:13;5.33;;;3.37;;
3341;SDS011;1684;50.748;6.154;2023-05-10T13:40:42;5.97;;;3.67;;
3341;SDS011;1684;50.748;6.154;2023-05-10T13:43:10;8.40;;;3.90;;
3341;SDS011;1684;50.748;6.154;2023-05-10T13:45:38;6.60;;;3.87;;
3341;SDS011;1684;50.748;6.154;2023-05-10T13:48:07;5.63;;;3.70;;
3341;SDS011;1684;50.748;6.154;2023-05-10T13:50:35;5.13;;;3.43;;
3341;SDS011;1684;50.748;6.154;2023-05-10T13:53:06;8.00;;;4.37;;
3341;SDS011;1684;50.748;6.154;2023-05-10T13:55:34;5.70;;;3.87;;
3341;SDS011;1684;50.748;6.154;2023-05-10T13:58:20;7.73;;;4.10;;
3341;SDS011;1684;50.748;6.154;2023-05-10T14:00:49;5.40;;;4.00;;
3341;SDS011;1684;50.748;6.154;2023-05-10T14:03:17;7.90;;;4.63;;
3341;SDS011;1684;50.748;6.154;2023-05-10T14:05:46;6.30;;;4.40;;
3341;SDS011;1684;50.748;6.154;2023-05-10T14:08:15;7.77;;;4.60;;
3341;SDS011;1684;50.748;6.154;2023-05-10T14:10:44;7.10;;;4.20;;
3341;SDS011;1684;50.748;6.154;2023-05-10T14:13:12;9.03;;;5.47;;
3341;SDS011;1684;50.748;6.154;2023-05-10T14:15:41;8.53;;;4.97;;
3341;SDS011;1684;50.748;6.154;2023-05-10T14:18:09;5.83;;;4.30;;
3341;SDS011;1684;50.748;6.154;2023-05-10T14:20:38;7.07;;;4.90;;
3341;SDS011;1684;50.748;6.154;2023-05-10T14:23:07;6.70;;;3.63;;
3341;SDS011;1684;50.748;6.154;2023-05-10T14:25:39;5.57;;;3.80;;
3341;SDS011;1684;50.748;6.154;2023-05-10T14:28:07;7.10;;;4.10;;
3341;SDS011;1684;50.748;6.154;2023-05-10T14:30:36;6.30;;;4.00;;
3341;SDS011;1684;50.748;6.154;2023-05-10T14:33:04;6.50;;;4.13;;
3341;SDS011;1684;50.748;6.154;2023-05-10T14:35:33;6.50;;;4.37;;
3341;SDS011;1684;50.748;6.154;2023-05-10T14:38:02;4.40;;;2.33;;
3341;SDS011;1684;50.748;6.154;2023-05-10T14:40:30;5.60;;;3.50;;
3341;SDS011;1684;50.748;6.154;2023-05-10T14:43:00;4.87;;;3.73;;
3341;SDS011;1684;50.748;6.154;2023-05-10T14:45:28;5.20;;;3.30;;
3341;SDS011;1684;50.748;6.154;2023-05-10T14:47:57;6.63;;;3.87;;
3341;SDS011;1684;50.748;6.154;2023-05-10T14:50:25;7.80;;;4.87;;
3341;SDS011;1684;50.748;6.154;2023-05-10T14:53:02;6.20;;;4.30;;
3341;SDS011;1684;50.748;6.154;2023-05-10T14:55:33;7.30;;;5.00;;
3341;SDS011;1684;50.748;6.154;2023-05-10T14:58:03;6.13;;;3.80;;
3341;SDS011;1684;50.748;6.154;2023-05-10T15:00:32;6.37;;;4.10;;
3341;SDS011;1684;50.748;6.154;2023-05-10T15:03:00;4.77;;;3.20;;
3341;SDS011;1684;50.748;6.154;2023-05-10T15:05:31;6.93;;;3.80;;
3341;SDS011;1684;50.748;6.154;2023-05-10T15:07:59;7.07;;;4.77;;
3341;SDS011;1684;50.748;6.154;2023-05-10T15:10:28;9.10;;;4.97;;
3341;SDS011;1684;50.748;6.154;2023-05-10T15:12:59;7.47;;;4.60;;
3341;SDS011;1684;50.748;6.154;2023-05-10T15:15:29;7.17;;;4.33;;
3341;SDS011;1684;50.748;6.154;2023-05-10T15:17:57;9.27;;;4.10;;
3341;SDS011;1684;50.748;6.154;2023-05-10T15:20:25;8.13;;;5.07;;
3341;SDS011;1684;50.748;6.154;2023-05-10T15:22:54;7.77;;;4.90;;